MAS52 WMKP-RJBB
Flight info
| Callsign | MAS52 |
|---|---|
| Flight time | N/A |
| Altitude | 37000 |
| Route | BETNU1A BETNU W546 VKB M765 IGARI/K0885F370 M765 ALDAS/K0882F360 L625 ANOKI/N0475F360 L625 ALDIS/N0466F390 L625 MEVIN B462 MJC Y62 YURIX Y26 SEPIA B597 SUC Y53 NIXOV NIXOVC |
| Aircraft | A339/H-SADE1E2E3GHIJ3J5M1P2RWXY/LB2D1 |
Departure
| Time | N/A |
|---|---|
| Airport | Penang International Airport (WMKP) |
Arrival
| Time | 2026-05-01 08:45 |
|---|---|
| Airport | Kansai International Airport (RJBB) |
| Time | Latitude | Longitude | Altitude | Speed | Heading |
|---|---|---|---|---|---|
| 2026-04-30 22:45 | 5.29089 | 100.26531 | 29 ft | 0 kts | 324° |
| 2026-04-30 22:56 | 5.29074 | 100.26543 | 27 ft | 2 kts | 316° |
| 2026-04-30 22:56 | 5.29038 | 100.26557 | 26 ft | 2 kts | 302° |
| 2026-04-30 22:57 | 5.29032 | 100.26588 | 27 ft | 2 kts | 218° |
| 2026-04-30 22:57 | 5.29038 | 100.26593 | 27 ft | 0 kts | 219° |
| 2026-04-30 22:59 | 5.29028 | 100.26585 | 28 ft | 3 kts | 219° |
| 2026-04-30 22:59 | 5.28911 | 100.26482 | 29 ft | 11 kts | 221° |
| 2026-05-01 07:23 | 33.02385 | 133.44859 | 36971 ft | 560 kts | 53° |
| 2026-05-01 08:16 | 33.03151 | 133.46185 | 36921 ft | 553 kts | 48° |
| 2026-05-01 08:16 | 33.05276 | 133.49857 | 36749 ft | 538 kts | 48° |
| 2026-05-01 08:17 | 33.07425 | 133.53528 | 36494 ft | 529 kts | 47° |
| 2026-05-01 08:17 | 33.09539 | 133.57115 | 36248 ft | 530 kts | 47° |
| 2026-05-01 08:17 | 33.11674 | 133.60733 | 36006 ft | 533 kts | 47° |
| 2026-05-01 08:17 | 33.13779 | 133.64311 | 35768 ft | 533 kts | 47° |
| 2026-05-01 08:18 | 33.15903 | 133.67934 | 35517 ft | 532 kts | 47° |
| 2026-05-01 08:18 | 33.20151 | 133.75200 | 35067 ft | 532 kts | 47° |
| 2026-05-01 08:19 | 33.24386 | 133.82456 | 34543 ft | 532 kts | 48° |
| 2026-05-01 08:19 | 33.26479 | 133.86046 | 33969 ft | 532 kts | 48° |
| 2026-05-01 08:19 | 33.28595 | 133.89681 | 33053 ft | 533 kts | 47° |
| 2026-05-01 08:19 | 33.30714 | 133.93325 | 32000 ft | 533 kts | 47° |
| 2026-05-01 08:20 | 33.32828 | 133.96963 | 30795 ft | 532 kts | 47° |
| 2026-05-01 08:20 | 33.34923 | 134.00578 | 29918 ft | 525 kts | 47° |
| 2026-05-01 08:20 | 33.36974 | 134.04126 | 29242 ft | 514 kts | 47° |
| 2026-05-01 08:20 | 33.38983 | 134.07603 | 28856 ft | 501 kts | 47° |
| 2026-05-01 08:21 | 33.40943 | 134.10992 | 28370 ft | 491 kts | 47° |
| 2026-05-01 08:21 | 33.42881 | 134.14335 | 27784 ft | 485 kts | 47° |
| 2026-05-01 08:21 | 33.44788 | 134.17628 | 27230 ft | 479 kts | 47° |
| 2026-05-01 08:21 | 33.46674 | 134.20899 | 26678 ft | 473 kts | 46° |
| 2026-05-01 08:22 | 33.48532 | 134.24121 | 26133 ft | 468 kts | 46° |
| 2026-05-01 08:22 | 33.50350 | 134.27276 | 25600 ft | 462 kts | 46° |
| 2026-05-01 08:22 | 33.52162 | 134.30423 | 25056 ft | 456 kts | 46° |
| 2026-05-01 08:22 | 33.53955 | 134.33536 | 24542 ft | 451 kts | 46° |
| 2026-05-01 08:23 | 33.55722 | 134.36610 | 24004 ft | 445 kts | 46° |
| 2026-05-01 08:23 | 33.57476 | 134.39661 | 23495 ft | 440 kts | 46° |
| 2026-05-01 08:23 | 33.59229 | 134.42629 | 22931 ft | 428 kts | 41° |
| 2026-05-01 08:23 | 33.61287 | 134.45036 | 22464 ft | 400 kts | 26° |
| 2026-05-01 08:24 | 33.63626 | 134.46605 | 22009 ft | 372 kts | 11° |
| 2026-05-01 08:24 | 33.66076 | 134.47371 | 21589 ft | 364 kts | 359° |
| 2026-05-01 08:24 | 33.68665 | 134.47836 | 21149 ft | 388 kts | 0° |
| 2026-05-01 08:24 | 33.71367 | 134.48372 | 20683 ft | 396 kts | 1° |
| 2026-05-01 08:25 | 33.74085 | 134.48962 | 20200 ft | 394 kts | 2° |
| 2026-05-01 08:25 | 33.76716 | 134.49554 | 19753 ft | 388 kts | 2° |
| 2026-05-01 08:25 | 33.79341 | 134.50150 | 19281 ft | 377 kts | 2° |
| 2026-05-01 08:25 | 33.81882 | 134.50723 | 18835 ft | 366 kts | 2° |
| 2026-05-01 08:26 | 33.84351 | 134.51273 | 18399 ft | 356 kts | 2° |
| 2026-05-01 08:26 | 33.86758 | 134.51806 | 17957 ft | 347 kts | 2° |
| 2026-05-01 08:26 | 33.89136 | 134.52326 | 17511 ft | 358 kts | 2° |
| 2026-05-01 08:26 | 33.91682 | 134.52864 | 17052 ft | 380 kts | 2° |
| 2026-05-01 08:27 | 33.94305 | 134.53433 | 16579 ft | 385 kts | 3° |
| 2026-05-01 08:27 | 33.96928 | 134.54022 | 16121 ft | 380 kts | 4° |
| 2026-05-01 08:27 | 33.99505 | 134.54612 | 15649 ft | 371 kts | 4° |
| 2026-05-01 08:27 | 34.01992 | 134.55176 | 15202 ft | 359 kts | 4° |
| 2026-05-01 08:28 | 34.04411 | 134.55720 | 14769 ft | 347 kts | 3° |
| 2026-05-01 08:28 | 34.06743 | 134.56239 | 14351 ft | 338 kts | 3° |
| 2026-05-01 08:28 | 34.09048 | 134.56748 | 13938 ft | 343 kts | 3° |
| 2026-05-01 08:28 | 34.11514 | 134.57271 | 13501 ft | 371 kts | 4° |
| 2026-05-01 08:29 | 34.14007 | 134.57818 | 13157 ft | 363 kts | 4° |
| 2026-05-01 08:29 | 34.16437 | 134.58444 | 12885 ft | 359 kts | 10° |
| 2026-05-01 08:29 | 34.18731 | 134.59751 | 12478 ft | 370 kts | 27° |
| 2026-05-01 08:29 | 34.20638 | 134.61874 | 12040 ft | 375 kts | 45° |
| 2026-05-01 08:30 | 34.22260 | 134.64299 | 11576 ft | 365 kts | 45° |
| 2026-05-01 08:30 | 34.23836 | 134.66649 | 11141 ft | 354 kts | 45° |
| 2026-05-01 08:30 | 34.25382 | 134.68926 | 10740 ft | 348 kts | 44° |
| 2026-05-01 08:30 | 34.26912 | 134.71153 | 10653 ft | 340 kts | 44° |
| 2026-05-01 08:31 | 34.28404 | 134.73319 | 10541 ft | 327 kts | 44° |
| 2026-05-01 08:31 | 34.29819 | 134.75373 | 10254 ft | 316 kts | 44° |
| 2026-05-01 08:31 | 34.31210 | 134.77383 | 10010 ft | 313 kts | 43° |
| 2026-05-01 08:31 | 34.32616 | 134.79406 | 9874 ft | 314 kts | 43° |
| 2026-05-01 08:32 | 34.34017 | 134.81428 | 9755 ft | 313 kts | 44° |
| 2026-05-01 08:32 | 34.35410 | 134.83443 | 9534 ft | 313 kts | 43° |
| 2026-05-01 08:32 | 34.36798 | 134.85459 | 9212 ft | 309 kts | 43° |
| 2026-05-01 08:32 | 34.38162 | 134.87445 | 8885 ft | 302 kts | 43° |
| 2026-05-01 08:33 | 34.39471 | 134.89348 | 8575 ft | 293 kts | 43° |
| 2026-05-01 08:33 | 34.40740 | 134.91201 | 8269 ft | 279 kts | 43° |
| 2026-05-01 08:33 | 34.42003 | 134.93036 | 7983 ft | 301 kts | 43° |
| 2026-05-01 08:33 | 34.43422 | 134.95065 | 7745 ft | 323 kts | 44° |
| 2026-05-01 08:34 | 34.44857 | 134.97153 | 7688 ft | 319 kts | 44° |
| 2026-05-01 08:34 | 34.46244 | 134.99199 | 7533 ft | 307 kts | 44° |
| 2026-05-01 08:34 | 34.47587 | 135.01178 | 7007 ft | 301 kts | 44° |
| 2026-05-01 08:34 | 34.48911 | 135.03108 | 6272 ft | 299 kts | 43° |
| 2026-05-01 08:35 | 34.50240 | 135.05043 | 5682 ft | 295 kts | 44° |
| 2026-05-01 08:35 | 34.51538 | 135.06941 | 5425 ft | 295 kts | 44° |
| 2026-05-01 08:35 | 34.52870 | 135.08879 | 5052 ft | 301 kts | 44° |
| 2026-05-01 08:35 | 34.54201 | 135.10825 | 4636 ft | 295 kts | 44° |
| 2026-05-01 08:36 | 34.55486 | 135.12717 | 4257 ft | 284 kts | 44° |
| 2026-05-01 08:36 | 34.56700 | 135.14506 | 4031 ft | 281 kts | 44° |
| 2026-05-01 08:36 | 34.57941 | 135.16322 | 3981 ft | 270 kts | 44° |
| 2026-05-01 08:36 | 34.59089 | 135.18016 | 3972 ft | 249 kts | 44° |
| 2026-05-01 08:37 | 34.60162 | 135.19630 | 3974 ft | 249 kts | 48° |
| 2026-05-01 08:37 | 34.60834 | 135.21598 | 3961 ft | 258 kts | 78° |
| 2026-05-01 08:37 | 34.60907 | 135.23756 | 3949 ft | 254 kts | 92° |
| 2026-05-01 08:37 | 34.60771 | 135.25892 | 3721 ft | 254 kts | 95° |
| 2026-05-01 08:38 | 34.60608 | 135.28024 | 3462 ft | 250 kts | 95° |
| 2026-05-01 08:38 | 34.60491 | 135.30086 | 3355 ft | 239 kts | 94° |
| 2026-05-01 08:38 | 34.60418 | 135.32035 | 3229 ft | 227 kts | 92° |
| 2026-05-01 08:38 | 34.60371 | 135.33918 | 3023 ft | 220 kts | 91° |
| 2026-05-01 08:39 | 34.60325 | 135.35742 | 2834 ft | 209 kts | 94° |
| 2026-05-01 08:39 | 34.59878 | 135.37330 | 2574 ft | 193 kts | 131° |
| 2026-05-01 08:39 | 34.58887 | 135.38295 | 2188 ft | 176 kts | 171° |
| 2026-05-01 08:39 | 34.57768 | 135.38392 | 2039 ft | 153 kts | 200° |
| 2026-05-01 08:40 | 34.55849 | 135.37671 | 1848 ft | 139 kts | 216° |
| 2026-05-01 08:40 | 34.55005 | 135.37128 | 1633 ft | 136 kts | 219° |
| 2026-05-01 08:40 | 34.54159 | 135.36602 | 1586 ft | 139 kts | 215° |
| 2026-05-01 08:41 | 34.53320 | 135.36026 | 1628 ft | 135 kts | 225° |
| 2026-05-01 08:41 | 34.52666 | 135.35257 | 1622 ft | 131 kts | 236° |
| 2026-05-01 08:41 | 34.52102 | 135.34397 | 1631 ft | 130 kts | 239° |
| 2026-05-01 08:41 | 34.51537 | 135.33545 | 1633 ft | 130 kts | 237° |
| 2026-05-01 08:42 | 34.50961 | 135.32691 | 1627 ft | 130 kts | 238° |
| 2026-05-01 08:42 | 34.50388 | 135.31838 | 1631 ft | 131 kts | 238° |
| 2026-05-01 08:42 | 34.49800 | 135.30965 | 1488 ft | 135 kts | 239° |
| 2026-05-01 08:42 | 34.49226 | 135.30113 | 1318 ft | 126 kts | 239° |
| 2026-05-01 08:43 | 34.48652 | 135.29236 | 1151 ft | 139 kts | 238° |
| 2026-05-01 08:43 | 34.48047 | 135.28359 | 963 ft | 130 kts | 237° |
| 2026-05-01 08:43 | 34.47476 | 135.27504 | 804 ft | 132 kts | 238° |
| 2026-05-01 08:43 | 34.46896 | 135.26631 | 635 ft | 132 kts | 237° |
| 2026-05-01 08:44 | 34.46335 | 135.25802 | 463 ft | 128 kts | 237° |
| 2026-05-01 08:44 | 34.45772 | 135.24968 | 302 ft | 125 kts | 238° |
| 2026-05-01 08:44 | 34.45233 | 135.24149 | 118 ft | 127 kts | 238° |
| 2026-05-01 08:44 | 34.44678 | 135.23320 | 38 ft | 117 kts | 230° |
| 2026-05-01 08:45 | 34.44260 | 135.22710 | 35 ft | 69 kts | 230° |
| 2026-05-01 08:45 | 34.44036 | 135.22378 | 36 ft | 36 kts | 231° |
| 2026-05-01 08:45 | 34.43957 | 135.22259 | 37 ft | 14 kts | 230° |
| 2026-05-01 08:45 | 34.43885 | 135.22187 | 37 ft | 14 kts | 212° |
| 2026-05-01 08:46 | 34.43795 | 135.22134 | 37 ft | 15 kts | 202° |
| 2026-05-01 08:46 | 34.43701 | 135.22100 | 35 ft | 13 kts | 181° |
| 2026-05-01 08:46 | 34.43681 | 135.22186 | 35 ft | 12 kts | 67° |
| 2026-05-01 08:46 | 34.43737 | 135.22275 | 35 ft | 14 kts | 50° |
| 2026-05-01 08:47 | 34.43789 | 135.22355 | 35 ft | 11 kts | 58° |
| 2026-05-01 08:47 | 34.43767 | 135.22432 | 35 ft | 11 kts | 135° |
| 2026-05-01 08:47 | 34.43696 | 135.22500 | 35 ft | 16 kts | 141° |
| 2026-05-01 08:47 | 34.43593 | 135.22600 | 35 ft | 21 kts | 141° |
| 2026-05-01 08:48 | 34.43463 | 135.22726 | 32 ft | 26 kts | 141° |
| 2026-05-01 08:48 | 34.43318 | 135.22869 | 35 ft | 28 kts | 141° |
| 2026-05-01 08:48 | 34.43166 | 135.23018 | 34 ft | 29 kts | 140° |
| 2026-05-01 08:48 | 34.43019 | 135.23159 | 26 ft | 27 kts | 142° |
| 2026-05-01 08:49 | 34.42870 | 135.23307 | 30 ft | 29 kts | 141° |
| 2026-05-01 08:49 | 34.42713 | 135.23461 | 26 ft | 28 kts | 141° |
| 2026-05-01 08:49 | 34.42602 | 135.23570 | 27 ft | 15 kts | 139° |
| 2026-05-01 08:49 | 34.42597 | 135.23686 | 30 ft | 16 kts | 58° |
| 2026-05-01 08:50 | 34.42666 | 135.23789 | 30 ft | 13 kts | 50° |
| 2026-05-01 08:50 | 34.42730 | 135.23884 | 27 ft | 16 kts | 51° |
| 2026-05-01 08:50 | 34.42802 | 135.23992 | 27 ft | 18 kts | 51° |
| 2026-05-01 08:50 | 34.42883 | 135.24114 | 30 ft | 20 kts | 51° |
| 2026-05-01 08:51 | 34.42968 | 135.24211 | 28 ft | 15 kts | 21° |
| 2026-05-01 08:51 | 34.43071 | 135.24248 | 27 ft | 16 kts | 39° |
| 2026-05-01 08:51 | 34.43146 | 135.24359 | 30 ft | 18 kts | 51° |
| 2026-05-01 08:51 | 34.43223 | 135.24474 | 29 ft | 6 kts | 51° |
| 2026-05-01 08:52 | 34.43255 | 135.24493 | 29 ft | 5 kts | 8° |
| 2026-05-01 08:52 | 34.43265 | 135.24481 | 28 ft | 1 kts | 324° |
| 2026-05-01 08:52 | 34.43268 | 135.24477 | 25 ft | 1 kts | 318° |
| 2026-05-01 08:52 | 34.43275 | 135.24468 | 27 ft | 2 kts | 316° |
| 2026-05-01 08:53 | 34.43288 | 135.24456 | 30 ft | 2 kts | 320° |
| 2026-05-01 08:53 | 34.43295 | 135.24449 | 29 ft | 2 kts | 319° |
| 2026-05-01 08:53 | 34.43306 | 135.24438 | 27 ft | 1 kts | 319° |
| 2026-05-01 08:53 | 34.43304 | 135.24439 | 29 ft | 2 kts | 320° |
| 2026-05-01 08:54 | 34.43307 | 135.24437 | 26 ft | 0 kts | 320° |